Prestwich, United Kingdom
Current Conditions -  °F | °C
As of 10:20 AM on Monday 20 Oct 2014 (Local Time) from EGCC Reporting Station
Few Clouds Few Clouds  
Wind Chill: 54°   Ceiling: Unl
Heat Index: 54°   Visibility: 6mi
Dew Point: 50°   Wind: 10mph
Humidity: 88%   Direction: 220°SW
Pressure: 29.91"   Gusts: NA
Location:  53.53°N, 2.28°W
Report Text: EGCC 200920Z 22009KT 9999 FEW023 12/10 Q1013 TEMPO SHRA
Loading
Personal Weather Stations






























Interactive Weather Map
Tropical Storm Tracking
New forecast layout! Learn more

10-Day Weather Forecast

Advertisements
Track Severe Weather on mobile